IE-0023 weather

Ardfert Airstrip
Ardfert, Ireland

Public forecast

Using degrees Celsius for public forecast. Weather courtesy of forecast.io.

METAR (pilot weather report)

Report is more than 2 hours old.

Closest report is Kerry Airport, 13.3 nm (24.6 km) SE. Retrieved 2019/06/19 19:00 UTC (3 hours ago):

EIKY 191900Z 26011KT 240V300 9999 -RA SCT019 BNN030 13/09 Q1010

TAF (pilot weather forecast)

Closest forecast is Shannon Airport, 37.3 nm (69.1 km) NE. Retrieved 2019/06/19 18:09 UTC (4 hours ago):

TAF EINN 191700Z 1918/2018 26010KT 9999 SCT020 BKN040 TEMPO 1918/2001 26015KT SHRA SCT018CB